KLND/LND METAR and TAF weather

Enter ICAO airport designator
Station Type Date Time Source
KLND METAR 2019/06/17 04:53 UTC NOAA

KLND 170453Z AUTO 16009KT 10SM BKN075 OVC100 12/11 A3012 RMK AO2 RAE28 SLP151 T01220106 $


Station Type Date Time Source
KLND Decoded METAR 2019/06/17 04:53 UTC NOAA

LANDER HUNT FIELD, WY, United States (KLND) 42-49N 108-44W 1694M
Jun 17, 2019 - 12:53 AM EDT / 2019.06.17 0453 UTC
Wind: from the SSE (160 degrees) at 10 MPH (9 KT):0
Visibility: 10 mile(s):0
Sky conditions: overcast
Temperature: 54.0 F (12.2 C)
Dew Point: 51.1 F (10.6 C)
Relative Humidity: 89%
Pressure (altimeter): 30.12 in. Hg (1019 hPa)
ob: KLND 170453Z AUTO 16009KT 10SM BKN075 OVC100 12/11 A3012 RMK AO2 RAE28 SLP151 T01220106
cycle: 5

Station Type Date Time Source
KLND TAF 2019/06/17 06:45 UTC NOAA

TAF KLND 170544Z 1706/1806 03008KT P6SM VCSH SCT100
FM170900 VRB06KT P6SM BKN120
FM171800 05009KT P6SM VCTS SCT080CB

Example: see airport list